sensor_id;sensor_type;location;lat;lon;timestamp;pressure;altitude;pressure_sealevel;temperature;humidity
22647;BME280;11490;42.726;23.268;2022-08-04T00:00:06;95395.59;;;19.64;84.97
22647;BME280;11490;42.726;23.268;2022-08-04T00:08:45;95384.25;;;19.62;84.87
22647;BME280;11490;42.726;23.268;2022-08-04T00:11:15;95337.97;;;19.39;84.67
22647;BME280;11490;42.726;23.268;2022-08-04T00:13:49;95359.00;;;19.47;84.71
22647;BME280;11490;42.726;23.268;2022-08-04T00:16:17;95333.47;;;19.30;84.74
22647;BME280;11490;42.726;23.268;2022-08-04T00:18:51;95372.97;;;19.54;84.63
22647;BME280;11490;42.726;23.268;2022-08-04T00:21:21;95374.47;;;19.66;84.41
22647;BME280;11490;42.726;23.268;2022-08-04T00:23:50;95366.19;;;19.57;84.32
22647;BME280;11490;42.726;23.268;2022-08-04T00:26:16;95361.69;;;19.47;84.78
22647;BME280;11490;42.726;23.268;2022-08-04T00:28:43;95362.81;;;19.41;84.91
22647;BME280;11490;42.726;23.268;2022-08-04T00:31:09;95356.44;;;19.32;85.23
22647;BME280;11490;42.726;23.268;2022-08-04T00:33:36;95339.34;;;19.13;85.84
22647;BME280;11490;42.726;23.268;2022-08-04T00:36:02;95347.88;;;19.25;85.57
22647;BME280;11490;42.726;23.268;2022-08-04T00:38:28;95366.06;;;19.43;85.19
22647;BME280;11490;42.726;23.268;2022-08-04T00:43:34;95354.13;;;19.44;84.97
22647;BME280;11490;42.726;23.268;2022-08-04T00:49:14;95397.84;;;19.56;84.26
22647;BME280;11490;42.726;23.268;2022-08-04T00:51:49;95351.09;;;19.27;85.32
22647;BME280;11490;42.726;23.268;2022-08-04T00:55:00;95362.38;;;19.34;83.85
22647;BME280;11490;42.726;23.268;2022-08-04T00:57:49;95391.25;;;19.39;84.94
22647;BME280;11490;42.726;23.268;2022-08-04T01:00:19;95392.00;;;19.44;84.55
22647;BME280;11490;42.726;23.268;2022-08-04T01:17:10;95377.81;;;19.05;85.36
22647;BME280;11490;42.726;23.268;2022-08-04T01:30:22;95377.50;;;18.82;86.65
22647;BME280;11490;42.726;23.268;2022-08-04T01:33:18;95388.56;;;18.86;86.25
22647;BME280;11490;42.726;23.268;2022-08-04T01:35:47;95414.59;;;19.06;86.57
22647;BME280;11490;42.726;23.268;2022-08-04T01:38:23;95392.63;;;18.89;85.86
22647;BME280;11490;42.726;23.268;2022-08-04T01:41:12;95380.03;;;18.74;86.01
22647;BME280;11490;42.726;23.268;2022-08-04T01:43:43;95394.19;;;18.90;85.38
22647;BME280;11490;42.726;23.268;2022-08-04T01:46:11;95391.56;;;18.84;85.52
22647;BME280;11490;42.726;23.268;2022-08-04T01:48:44;95388.09;;;18.79;85.64
22647;BME280;11490;42.726;23.268;2022-08-04T01:51:09;95384.06;;;18.76;85.31
22647;BME280;11490;42.726;23.268;2022-08-04T01:53:41;95348.22;;;18.32;86.79
22647;BME280;11490;42.726;23.268;2022-08-04T01:56:10;95393.66;;;18.64;86.33
22647;BME280;11490;42.726;23.268;2022-08-04T01:58:36;95373.81;;;18.39;86.38
22647;BME280;11490;42.726;23.268;2022-08-04T02:01:06;95412.50;;;18.69;87.18
22647;BME280;11490;42.726;23.268;2022-08-04T02:03:33;95400.50;;;18.46;87.76
22647;BME280;11490;42.726;23.268;2022-08-04T02:06:15;95359.97;;;18.17;89.79
22647;BME280;11490;42.726;23.268;2022-08-04T02:11:26;95337.03;;;18.15;88.05
22647;BME280;11490;42.726;23.268;2022-08-04T02:14:04;95354.16;;;18.34;87.48
22647;BME280;11490;42.726;23.268;2022-08-04T02:21:38;95358.28;;;18.60;86.87
22647;BME280;11490;42.726;23.268;2022-08-04T02:24:07;95391.69;;;18.69;86.29
22647;BME280;11490;42.726;23.268;2022-08-04T02:26:34;95381.00;;;18.54;85.59
22647;BME280;11490;42.726;23.268;2022-08-04T02:35:13;95409.09;;;18.53;87.54
22647;BME280;11490;42.726;23.268;2022-08-04T02:37:46;95388.34;;;18.49;87.36
22647;BME280;11490;42.726;23.268;2022-08-04T02:40:12;95367.13;;;18.32;86.56
22647;BME280;11490;42.726;23.268;2022-08-04T02:42:38;95357.03;;;18.08;87.31
22647;BME280;11490;42.726;23.268;2022-08-04T02:45:04;95383.88;;;18.29;88.13
22647;BME280;11490;42.726;23.268;2022-08-04T02:47:31;95361.84;;;18.17;87.09
22647;BME280;11490;42.726;23.268;2022-08-04T02:49:57;95386.88;;;18.27;86.89
22647;BME280;11490;42.726;23.268;2022-08-04T02:52:24;95407.03;;;18.40;87.30
22647;BME280;11490;42.726;23.268;2022-08-04T02:54:53;95416.06;;;18.25;87.21
22647;BME280;11490;42.726;23.268;2022-08-04T02:57:22;95408.78;;;18.21;87.55
22647;BME280;11490;42.726;23.268;2022-08-04T03:05:38;95377.72;;;17.84;88.72
22647;BME280;11490;42.726;23.268;2022-08-04T03:11:12;95410.22;;;18.08;87.57
22647;BME280;11490;42.726;23.268;2022-08-04T03:16:39;95408.59;;;17.53;89.59
22647;BME280;11490;42.726;23.268;2022-08-04T03:27:17;95417.16;;;17.75;89.50
22647;BME280;11490;42.726;23.268;2022-08-04T03:30:07;95378.38;;;17.56;89.08
22647;BME280;11490;42.726;23.268;2022-08-04T03:36:26;95404.28;;;17.57;89.09
22647;BME280;11490;42.726;23.268;2022-08-04T03:44:20;95413.63;;;17.80;89.46
22647;BME280;11490;42.726;23.268;2022-08-04T04:25:03;95363.22;;;18.14;87.50
22647;BME280;11490;42.726;23.268;2022-08-04T04:38:29;95427.38;;;18.66;88.78
22647;BME280;11490;42.726;23.268;2022-08-04T04:41:07;95382.34;;;18.52;87.40
22647;BME280;11490;42.726;23.268;2022-08-04T04:49:32;95442.28;;;18.93;88.02
22647;BME280;11490;42.726;23.268;2022-08-04T04:52:12;95423.75;;;18.81;87.69
22647;BME280;11490;42.726;23.268;2022-08-04T04:54:57;95425.28;;;18.92;86.83
22647;BME280;11490;42.726;23.268;2022-08-04T04:57:28;95405.22;;;18.69;87.89
22647;BME280;11490;42.726;23.268;2022-08-04T04:59:57;95423.31;;;18.98;87.56
22647;BME280;11490;42.726;23.268;2022-08-04T05:07:53;95444.78;;;19.18;87.01
22647;BME280;11490;42.726;23.268;2022-08-04T05:10:57;95440.81;;;19.34;87.16
22647;BME280;11490;42.726;23.268;2022-08-04T05:13:33;95434.31;;;19.35;86.34
22647;BME280;11490;42.726;23.268;2022-08-04T05:16:04;95427.94;;;19.21;86.38
22647;BME280;11490;42.726;23.268;2022-08-04T05:18:34;95419.63;;;19.17;86.62
22647;BME280;11490;42.726;23.268;2022-08-04T05:23:42;95419.19;;;19.34;85.72
22647;BME280;11490;42.726;23.268;2022-08-04T05:26:11;95409.47;;;19.28;85.28
22647;BME280;11490;42.726;23.268;2022-08-04T05:28:52;95442.16;;;19.60;85.23
22647;BME280;11490;42.726;23.268;2022-08-04T05:31:22;95449.63;;;19.69;85.29
22647;BME280;11490;42.726;23.268;2022-08-04T05:34:05;95447.75;;;19.69;85.18
22647;BME280;11490;42.726;23.268;2022-08-04T05:36:38;95433.41;;;19.69;85.66
22647;BME280;11490;42.726;23.268;2022-08-04T05:39:06;95414.97;;;19.71;85.10
22647;BME280;11490;42.726;23.268;2022-08-04T05:41:34;95441.94;;;19.81;86.31
22647;BME280;11490;42.726;23.268;2022-08-04T05:44:01;95411.75;;;19.69;86.01
22647;BME280;11490;42.726;23.268;2022-08-04T05:46:28;95422.56;;;19.69;85.41
22647;BME280;11490;42.726;23.268;2022-08-04T05:48:54;95436.97;;;19.88;85.78
22647;BME280;11490;42.726;23.268;2022-08-04T05:51:20;95442.69;;;20.05;85.06
22647;BME280;11490;42.726;23.268;2022-08-04T05:53:46;95428.47;;;20.13;83.93
22647;BME280;11490;42.726;23.268;2022-08-04T05:56:13;95438.31;;;20.47;83.80
22647;BME280;11490;42.726;23.268;2022-08-04T05:58:40;95431.47;;;20.35;83.50
22647;BME280;11490;42.726;23.268;2022-08-04T06:01:08;95447.25;;;20.66;82.22
22647;BME280;11490;42.726;23.268;2022-08-04T06:03:36;95431.84;;;20.80;81.63
22647;BME280;11490;42.726;23.268;2022-08-04T06:06:03;95423.19;;;20.78;81.68
22647;BME280;11490;42.726;23.268;2022-08-04T06:08:29;95405.06;;;20.60;81.00
22647;BME280;11490;42.726;23.268;2022-08-04T06:10:58;95444.63;;;20.93;81.12
22647;BME280;11490;42.726;23.268;2022-08-04T06:13:35;95423.47;;;20.95;80.79
22647;BME280;11490;42.726;23.268;2022-08-04T06:16:37;95463.88;;;21.43;79.62
22647;BME280;11490;42.726;23.268;2022-08-04T06:19:48;95356.34;;;20.87;80.28
22647;BME280;11490;42.726;23.268;2022-08-04T06:22:17;95440.44;;;21.47;79.24
22647;BME280;11490;42.726;23.268;2022-08-04T06:24:45;95447.28;;;21.44;80.52
22647;BME280;11490;42.726;23.268;2022-08-04T06:27:14;95440.44;;;21.47;80.40
22647;BME280;11490;42.726;23.268;2022-08-04T06:29:52;95366.91;;;21.02;80.51
22647;BME280;11490;42.726;23.268;2022-08-04T06:32:19;95432.72;;;21.54;79.43
22647;BME280;11490;42.726;23.268;2022-08-04T06:34:59;95432.22;;;21.52;80.87
22647;BME280;11490;42.726;23.268;2022-08-04T06:37:36;95429.91;;;21.59;80.30
22647;BME280;11490;42.726;23.268;2022-08-04T06:40:03;95467.78;;;21.92;81.30
22647;BME280;11490;42.726;23.268;2022-08-04T06:42:39;95379.13;;;21.46;79.59
22647;BME280;11490;42.726;23.268;2022-08-04T06:45:19;95409.06;;;21.68;80.80
22647;BME280;11490;42.726;23.268;2022-08-04T06:47:57;95369.69;;;21.57;79.48
22647;BME280;11490;42.726;23.268;2022-08-04T06:50:35;95415.09;;;22.20;78.19
22647;BME280;11490;42.726;23.268;2022-08-04T06:53:17;95409.34;;;22.08;76.46
22647;BME280;11490;42.726;23.268;2022-08-04T06:55:45;95418.56;;;22.34;77.22
22647;BME280;11490;42.726;23.268;2022-08-04T06:58:11;95384.84;;;22.35;75.94
22647;BME280;11490;42.726;23.268;2022-08-04T07:00:41;95373.75;;;22.45;76.91
22647;BME280;11490;42.726;23.268;2022-08-04T07:03:30;95362.44;;;22.52;76.77
22647;BME280;11490;42.726;23.268;2022-08-04T07:05:56;95442.72;;;22.94;74.85
22647;BME280;11490;42.726;23.268;2022-08-04T07:08:22;95429.13;;;22.94;74.95
22647;BME280;11490;42.726;23.268;2022-08-04T07:10:49;95419.41;;;23.01;75.21
22647;BME280;11490;42.726;23.268;2022-08-04T07:13:15;95404.88;;;23.06;76.47
22647;BME280;11490;42.726;23.268;2022-08-04T07:15:46;95437.44;;;23.20;74.43
22647;BME280;11490;42.726;23.268;2022-08-04T07:18:12;95429.81;;;23.53;74.94
22647;BME280;11490;42.726;23.268;2022-08-04T07:20:42;95422.72;;;23.91;74.67
22647;BME280;11490;42.726;23.268;2022-08-04T07:23:08;95447.53;;;24.38;71.92
22647;BME280;11490;42.726;23.268;2022-08-04T07:25:36;95391.28;;;23.85;69.77
22647;BME280;11490;42.726;23.268;2022-08-04T07:28:08;95361.25;;;23.51;69.54
22647;BME280;11490;42.726;23.268;2022-08-04T07:30:34;95360.97;;;23.78;71.20
22647;BME280;11490;42.726;23.268;2022-08-04T07:33:01;95408.50;;;24.11;68.98
22647;BME280;11490;42.726;23.268;2022-08-04T07:35:28;95393.47;;;24.40;69.90
22647;BME280;11490;42.726;23.268;2022-08-04T07:37:53;95412.75;;;24.69;68.77
22647;BME280;11490;42.726;23.268;2022-08-04T07:40:19;95408.84;;;24.87;67.96
22647;BME280;11490;42.726;23.268;2022-08-04T07:42:45;95422.69;;;25.00;67.90
22647;BME280;11490;42.726;23.268;2022-08-04T07:45:18;95423.63;;;24.86;69.45
22647;BME280;11490;42.726;23.268;2022-08-04T07:47:55;95410.97;;;24.90;66.99
22647;BME280;11490;42.726;23.268;2022-08-04T07:50:21;95426.34;;;25.04;66.95
22647;BME280;11490;42.726;23.268;2022-08-04T07:52:47;95397.00;;;24.83;66.84
22647;BME280;11490;42.726;23.268;2022-08-04T07:55:28;95406.94;;;24.79;66.84
22647;BME280;11490;42.726;23.268;2022-08-04T07:58:12;95398.59;;;24.84;66.59
22647;BME280;11490;42.726;23.268;2022-08-04T08:01:00;95437.72;;;25.23;65.27
22647;BME280;11490;42.726;23.268;2022-08-04T08:03:26;95413.50;;;25.13;64.92
22647;BME280;11490;42.726;23.268;2022-08-04T08:05:52;95385.28;;;25.00;65.50
22647;BME280;11490;42.726;23.268;2022-08-04T08:08:38;95398.25;;;25.12;67.54
22647;BME280;11490;42.726;23.268;2022-08-04T08:11:05;95410.78;;;25.13;66.90
22647;BME280;11490;42.726;23.268;2022-08-04T08:13:30;95403.66;;;25.29;68.46
22647;BME280;11490;42.726;23.268;2022-08-04T08:15:57;95417.72;;;25.48;64.41
22647;BME280;11490;42.726;23.268;2022-08-04T08:18:23;95412.16;;;25.27;65.29
22647;BME280;11490;42.726;23.268;2022-08-04T08:20:49;95394.78;;;25.41;67.33
22647;BME280;11490;42.726;23.268;2022-08-04T08:23:19;95411.94;;;25.58;65.01
22647;BME280;11490;42.726;23.268;2022-08-04T08:25:45;95421.50;;;25.73;65.69
22647;BME280;11490;42.726;23.268;2022-08-04T08:28:11;95382.97;;;25.57;66.26
22647;BME280;11490;42.726;23.268;2022-08-04T08:30:36;95427.22;;;25.89;68.36
22647;BME280;11490;42.726;23.268;2022-08-04T08:33:07;95376.72;;;25.57;64.03
22647;BME280;11490;42.726;23.268;2022-08-04T08:35:41;95390.19;;;26.00;62.88
22647;BME280;11490;42.726;23.268;2022-08-04T08:38:13;95391.03;;;25.62;63.14
22647;BME280;11490;42.726;23.268;2022-08-04T09:11:15;95386.34;;;26.84;60.77
22647;BME280;11490;42.726;23.268;2022-08-04T09:13:54;95393.41;;;27.06;58.12
22647;BME280;11490;42.726;23.268;2022-08-04T09:16:30;95371.75;;;27.13;54.88
22647;BME280;11490;42.726;23.268;2022-08-04T09:19:06;95391.31;;;27.36;56.35
22647;BME280;11490;42.726;23.268;2022-08-04T09:24:33;95388.50;;;28.05;53.03
22647;BME280;11490;42.726;23.268;2022-08-04T09:27:04;95381.97;;;28.34;49.62
22647;BME280;11490;42.726;23.268;2022-08-04T09:29:39;95396.84;;;27.96;50.62
22647;BME280;11490;42.726;23.268;2022-08-04T09:35:10;95389.78;;;28.08;52.93
22647;BME280;11490;42.726;23.268;2022-08-04T09:37:45;95411.28;;;28.18;53.88
22647;BME280;11490;42.726;23.268;2022-08-04T09:40:31;95412.44;;;28.17;51.37
22647;BME280;11490;42.726;23.268;2022-08-04T09:43:16;95392.47;;;28.44;52.02
22647;BME280;11490;42.726;23.268;2022-08-04T09:48:52;95410.38;;;28.66;51.39
22647;BME280;11490;42.726;23.268;2022-08-04T09:54:21;95358.28;;;28.82;48.54
22647;BME280;11490;42.726;23.268;2022-08-04T09:57:06;95375.22;;;29.27;49.12
22647;BME280;11490;42.726;23.268;2022-08-04T10:02:16;95376.69;;;29.84;44.88
22647;BME280;11490;42.726;23.268;2022-08-04T10:05:04;95397.09;;;29.99;45.13
22647;BME280;11490;42.726;23.268;2022-08-04T10:07:46;95391.03;;;30.25;45.34
22647;BME280;11490;42.726;23.268;2022-08-04T10:10:19;95380.00;;;30.40;45.66
22647;BME280;11490;42.726;23.268;2022-08-04T10:13:05;95387.78;;;30.54;43.48
22647;BME280;11490;42.726;23.268;2022-08-04T10:20:57;95390.09;;;31.29;40.72
22647;BME280;11490;42.726;23.268;2022-08-04T10:28:36;95379.47;;;30.89;35.35
22647;BME280;11490;42.726;23.268;2022-08-04T10:31:07;95377.34;;;30.82;37.47
22647;BME280;11490;42.726;23.268;2022-08-04T10:33:45;95344.56;;;31.16;39.73
22647;BME280;11490;42.726;23.268;2022-08-04T10:36:17;95333.13;;;31.14;37.63
22647;BME280;11490;42.726;23.268;2022-08-04T10:39:02;95377.75;;;31.42;38.38
22647;BME280;11490;42.726;23.268;2022-08-04T10:41:51;95371.81;;;31.21;38.46
22647;BME280;11490;42.726;23.268;2022-08-04T10:44:39;95368.00;;;31.06;39.19
22647;BME280;11490;42.726;23.268;2022-08-04T10:47:19;95325.22;;;30.00;38.06
22647;BME280;11490;42.726;23.268;2022-08-04T10:49:51;95334.09;;;30.09;38.61
22647;BME280;11490;42.726;23.268;2022-08-04T10:52:41;95351.06;;;30.31;39.89
22647;BME280;11490;42.726;23.268;2022-08-04T10:58:00;95336.56;;;30.14;36.17
22647;BME280;11490;42.726;23.268;2022-08-04T11:00:30;95349.16;;;30.15;37.62
22647;BME280;11490;42.726;23.268;2022-08-04T11:03:07;95349.88;;;30.12;35.85
22647;BME280;11490;42.726;23.268;2022-08-04T11:08:49;95329.09;;;30.69;33.41
22647;BME280;11490;42.726;23.268;2022-08-04T11:11:23;95356.84;;;31.18;33.28
22647;BME280;11490;42.726;23.268;2022-08-04T11:14:06;95340.78;;;31.66;33.73
22647;BME280;11490;42.726;23.268;2022-08-04T11:16:40;95355.44;;;31.96;30.13
22647;BME280;11490;42.726;23.268;2022-08-04T11:25:13;95343.16;;;32.46;31.11
22647;BME280;11490;42.726;23.268;2022-08-04T11:30:24;95318.84;;;31.77;27.17
22647;BME280;11490;42.726;23.268;2022-08-04T11:35:47;95330.94;;;32.18;29.57
22647;BME280;11490;42.726;23.268;2022-08-04T11:38:26;95282.22;;;32.32;32.80
22647;BME280;11490;42.726;23.268;2022-08-04T11:40:56;95318.81;;;32.56;29.43
22647;BME280;11490;42.726;23.268;2022-08-04T11:46:27;95317.78;;;31.85;31.11
22647;BME280;11490;42.726;23.268;2022-08-04T11:49:04;95301.28;;;31.39;30.61
22647;BME280;11490;42.726;23.268;2022-08-04T11:51:32;95325.63;;;31.83;31.97
22647;BME280;11490;42.726;23.268;2022-08-04T11:54:00;95297.59;;;31.54;30.29
22647;BME280;11490;42.726;23.268;2022-08-04T11:56:26;95301.22;;;31.58;32.48
22647;BME280;11490;42.726;23.268;2022-08-04T11:58:53;95292.41;;;31.26;32.40
22647;BME280;11490;42.726;23.268;2022-08-04T12:01:31;95299.19;;;31.10;32.55
22647;BME280;11490;42.726;23.268;2022-08-04T12:10:02;95299.50;;;30.47;33.39
22647;BME280;11490;42.726;23.268;2022-08-04T12:13:27;95302.72;;;29.79;33.36
22647;BME280;11490;42.726;23.268;2022-08-04T12:16:22;95328.16;;;29.76;34.27
22647;BME280;11490;42.726;23.268;2022-08-04T12:18:53;95332.88;;;29.60;35.43
22647;BME280;11490;42.726;23.268;2022-08-04T12:21:40;95320.69;;;29.41;36.45
22647;BME280;11490;42.726;23.268;2022-08-04T12:24:19;95295.78;;;28.91;36.82
22647;BME280;11490;42.726;23.268;2022-08-04T12:26:55;95310.66;;;28.90;36.98
22647;BME280;11490;42.726;23.268;2022-08-04T12:29:21;95295.97;;;28.98;37.17
22647;BME280;11490;42.726;23.268;2022-08-04T12:31:50;95319.91;;;29.13;37.28
22647;BME280;11490;42.726;23.268;2022-08-04T12:34:42;95290.38;;;28.79;37.24
22647;BME280;11490;42.726;23.268;2022-08-04T12:37:33;95314.03;;;28.99;38.00
22647;BME280;11490;42.726;23.268;2022-08-04T12:40:08;95292.41;;;28.82;37.81
22647;BME280;11490;42.726;23.268;2022-08-04T12:42:44;95309.00;;;29.01;38.66
22647;BME280;11490;42.726;23.268;2022-08-04T12:45:13;95295.59;;;28.84;38.81
22647;BME280;11490;42.726;23.268;2022-08-04T12:47:40;95305.34;;;28.97;39.55
22647;BME280;11490;42.726;23.268;2022-08-04T12:50:06;95268.31;;;28.91;39.33
22647;BME280;11490;42.726;23.268;2022-08-04T12:52:42;95279.66;;;29.05;38.22
22647;BME280;11490;42.726;23.268;2022-08-04T12:55:10;95275.31;;;29.20;38.78
22647;BME280;11490;42.726;23.268;2022-08-04T12:57:52;95260.63;;;29.12;38.19
22647;BME280;11490;42.726;23.268;2022-08-04T13:00:27;95298.28;;;29.27;38.22
22647;BME280;11490;42.726;23.268;2022-08-04T13:02:57;95280.22;;;29.26;39.21
22647;BME280;11490;42.726;23.268;2022-08-04T13:05:26;95282.44;;;29.36;38.05
22647;BME280;11490;42.726;23.268;2022-08-04T13:07:55;95272.72;;;29.39;37.91
22647;BME280;11490;42.726;23.268;2022-08-04T13:10:23;95278.03;;;29.48;37.77
22647;BME280;11490;42.726;23.268;2022-08-04T13:12:55;95279.06;;;29.59;38.75
22647;BME280;11490;42.726;23.268;2022-08-04T13:15:23;95231.63;;;29.30;37.37
22647;BME280;11490;42.726;23.268;2022-08-04T13:18:04;95263.81;;;29.14;35.64
22647;BME280;11490;42.726;23.268;2022-08-04T13:20:35;95252.94;;;29.02;34.59
22647;BME280;11490;42.726;23.268;2022-08-04T13:26:05;95206.84;;;29.11;35.59
22647;BME280;11490;42.726;23.268;2022-08-04T13:28:52;95200.91;;;29.09;36.62
22647;BME280;11490;42.726;23.268;2022-08-04T13:31:21;95273.69;;;29.46;35.92
22647;BME280;11490;42.726;23.268;2022-08-04T13:33:52;95258.81;;;29.67;35.72
22647;BME280;11490;42.726;23.268;2022-08-04T13:36:23;95257.31;;;29.69;35.74
22647;BME280;11490;42.726;23.268;2022-08-04T13:38:56;95226.91;;;29.62;34.73
22647;BME280;11490;42.726;23.268;2022-08-04T13:41:23;95269.44;;;29.84;35.26
22647;BME280;11490;42.726;23.268;2022-08-04T13:43:58;95197.88;;;29.30;34.54
22647;BME280;11490;42.726;23.268;2022-08-04T13:46:28;95259.81;;;29.59;36.29
22647;BME280;11490;42.726;23.268;2022-08-04T13:48:57;95241.75;;;29.26;36.00
22647;BME280;11490;42.726;23.268;2022-08-04T13:51:26;95236.44;;;29.33;36.41
22647;BME280;11490;42.726;23.268;2022-08-04T13:53:57;95255.75;;;29.53;38.32
22647;BME280;11490;42.726;23.268;2022-08-04T13:56:23;95210.75;;;29.10;37.06
22647;BME280;11490;42.726;23.268;2022-08-04T13:58:56;95226.84;;;29.27;35.32
22647;BME280;11490;42.726;23.268;2022-08-04T14:01:28;95214.00;;;29.31;35.00
22647;BME280;11490;42.726;23.268;2022-08-04T14:04:18;95189.97;;;29.28;36.61
22647;BME280;11490;42.726;23.268;2022-08-04T14:07:27;95170.59;;;29.05;35.53
22647;BME280;11490;42.726;23.268;2022-08-04T14:09:54;95201.69;;;29.25;36.38
22647;BME280;11490;42.726;23.268;2022-08-04T14:12:23;95202.50;;;29.41;35.85
22647;BME280;11490;42.726;23.268;2022-08-04T14:17:51;95204.34;;;29.37;36.61
22647;BME280;11490;42.726;23.268;2022-08-04T14:20:19;95235.16;;;29.62;37.07
22647;BME280;11490;42.726;23.268;2022-08-04T14:22:59;95157.41;;;29.11;36.33
22647;BME280;11490;42.726;23.268;2022-08-04T14:25:28;95214.25;;;29.58;37.73
22647;BME280;11490;42.726;23.268;2022-08-04T14:28:00;95151.72;;;29.04;36.30
22647;BME280;11490;42.726;23.268;2022-08-04T14:30:36;95221.97;;;29.52;37.02
22647;BME280;11490;42.726;23.268;2022-08-04T14:35:42;95223.31;;;29.42;37.05
22647;BME280;11490;42.726;23.268;2022-08-04T14:38:20;95208.59;;;29.19;37.67
22647;BME280;11490;42.726;23.268;2022-08-04T14:40:46;95218.53;;;29.39;38.03
22647;BME280;11490;42.726;23.268;2022-08-04T14:43:16;95231.19;;;29.44;38.22
22647;BME280;11490;42.726;23.268;2022-08-04T14:45:45;95217.47;;;29.13;38.33
22647;BME280;11490;42.726;23.268;2022-08-04T14:48:20;95209.16;;;29.09;39.10
22647;BME280;11490;42.726;23.268;2022-08-04T14:50:54;95217.13;;;29.14;38.93
22647;BME280;11490;42.726;23.268;2022-08-04T14:53:24;95229.00;;;29.02;39.12
22647;BME280;11490;42.726;23.268;2022-08-04T14:55:58;95229.53;;;29.08;39.13
22647;BME280;11490;42.726;23.268;2022-08-04T14:58:29;95192.53;;;28.74;38.82
22647;BME280;11490;42.726;23.268;2022-08-04T15:01:04;95199.16;;;28.85;38.78
22647;BME280;11490;42.726;23.268;2022-08-04T15:03:30;95215.28;;;28.87;39.50
22647;BME280;11490;42.726;23.268;2022-08-04T15:05:58;95222.59;;;28.83;39.69
22647;BME280;11490;42.726;23.268;2022-08-04T15:12:33;95241.13;;;29.01;40.09
22647;BME280;11490;42.726;23.268;2022-08-04T15:15:22;95188.47;;;28.68;39.85
22647;BME280;11490;42.726;23.268;2022-08-04T15:17:50;95203.16;;;28.60;39.61
22647;BME280;11490;42.726;23.268;2022-08-04T15:20:16;95204.59;;;28.69;39.70
22647;BME280;11490;42.726;23.268;2022-08-04T15:22:42;95193.44;;;28.62;40.15
22647;BME280;11490;42.726;23.268;2022-08-04T15:25:08;95180.41;;;28.59;40.57
22647;BME280;11490;42.726;23.268;2022-08-04T15:30:13;95215.00;;;28.92;40.27
22647;BME280;11490;42.726;23.268;2022-08-04T15:33:00;95176.06;;;28.58;39.23
22647;BME280;11490;42.726;23.268;2022-08-04T15:35:27;95219.78;;;28.95;39.38
22647;BME280;11490;42.726;23.268;2022-08-04T15:43:10;95221.47;;;28.99;40.32
22647;BME280;11490;42.726;23.268;2022-08-04T16:02:42;95187.53;;;28.92;41.47
22647;BME280;11490;42.726;23.268;2022-08-04T16:07:56;95171.84;;;28.77;42.25
22647;BME280;11490;42.726;23.268;2022-08-04T16:10:35;95209.06;;;29.05;41.33
22647;BME280;11490;42.726;23.268;2022-08-04T16:20:06;95211.38;;;29.03;41.04
22647;BME280;11490;42.726;23.268;2022-08-04T16:22:36;95216.50;;;29.05;40.64
22647;BME280;11490;42.726;23.268;2022-08-04T16:28:48;95212.88;;;29.01;41.54
22647;BME280;11490;42.726;23.268;2022-08-04T16:31:32;95121.97;;;28.43;39.46
22647;BME280;11490;42.726;23.268;2022-08-04T16:37:46;95198.97;;;28.94;39.46
22647;BME280;11490;42.726;23.268;2022-08-04T16:49:47;95201.72;;;28.94;40.52
22647;BME280;11490;42.726;23.268;2022-08-04T16:52:15;95171.66;;;28.69;38.25
22647;BME280;11490;42.726;23.268;2022-08-04T16:54:41;95168.00;;;28.65;39.15
22647;BME280;11490;42.726;23.268;2022-08-04T16:57:10;95140.75;;;28.41;41.57
22647;BME280;11490;42.726;23.268;2022-08-04T16:59:36;95157.47;;;28.52;41.24
22647;BME280;11490;42.726;23.268;2022-08-04T17:02:24;95141.72;;;28.33;41.69
22647;BME280;11490;42.726;23.268;2022-08-04T17:08:08;95134.91;;;28.15;41.06
22647;BME280;11490;42.726;23.268;2022-08-04T17:10:54;95135.00;;;28.03;41.08
22647;BME280;11490;42.726;23.268;2022-08-04T17:13:54;95163.47;;;28.14;41.84
22647;BME280;11490;42.726;23.268;2022-08-04T17:16:23;95193.53;;;28.22;41.81
22647;BME280;11490;42.726;23.268;2022-08-04T17:18:55;95167.38;;;27.85;40.78
22647;BME280;11490;42.726;23.268;2022-08-04T17:21:29;95253.03;;;28.34;40.63
22647;BME280;11490;42.726;23.268;2022-08-04T17:23:56;95152.22;;;27.75;40.22
22647;BME280;11490;42.726;23.268;2022-08-04T17:29:38;95245.41;;;28.27;41.68
22647;BME280;11490;42.726;23.268;2022-08-04T17:32:12;95194.69;;;27.81;41.65
22647;BME280;11490;42.726;23.268;2022-08-04T17:34:37;95189.91;;;27.78;41.59
22647;BME280;11490;42.726;23.268;2022-08-04T17:37:03;95235.06;;;27.96;40.82
22647;BME280;11490;42.726;23.268;2022-08-04T17:39:28;95153.44;;;27.38;42.05
22647;BME280;11490;42.726;23.268;2022-08-04T17:41:58;95196.00;;;27.47;42.06
22647;BME280;11490;42.726;23.268;2022-08-04T17:44:36;95245.41;;;27.75;41.39
22647;BME280;11490;42.726;23.268;2022-08-04T17:47:17;95263.09;;;27.90;42.11
22647;BME280;11490;42.726;23.268;2022-08-04T17:49:45;95168.97;;;27.34;44.48
22647;BME280;11490;42.726;23.268;2022-08-04T17:52:21;95272.56;;;27.92;45.34
22647;BME280;11490;42.726;23.268;2022-08-04T17:54:57;95230.81;;;27.47;46.57
22647;BME280;11490;42.726;23.268;2022-08-04T17:57:23;95244.63;;;27.50;47.37
22647;BME280;11490;42.726;23.268;2022-08-04T17:59:53;95237.00;;;27.19;46.19
22647;BME280;11490;42.726;23.268;2022-08-04T18:02:27;95270.31;;;27.46;46.65
22647;BME280;11490;42.726;23.268;2022-08-04T18:04:53;95264.81;;;27.34;47.53
22647;BME280;11490;42.726;23.268;2022-08-04T18:07:32;95233.53;;;26.86;47.17
22647;BME280;11490;42.726;23.268;2022-08-04T18:09:59;95253.88;;;26.97;48.33
22647;BME280;11490;42.726;23.268;2022-08-04T18:12:32;95263.56;;;27.07;49.69
22647;BME280;11490;42.726;23.268;2022-08-04T18:15:02;95278.88;;;27.08;49.40